sensor_id;sensor_type;location;lat;lon;timestamp;P1;durP1;ratioP1;P2;durP2;ratioP2
33148;SDS011;19506;51.040;3.856;2023-02-08T00:00:55;15.77;;;9.70;;
33148;SDS011;19506;51.040;3.856;2023-02-08T00:03:21;16.08;;;9.23;;
33148;SDS011;19506;51.040;3.856;2023-02-08T00:05:46;15.65;;;9.10;;
33148;SDS011;19506;51.040;3.856;2023-02-08T00:08:12;16.20;;;8.85;;
33148;SDS011;19506;51.040;3.856;2023-02-08T00:10:38;13.07;;;8.50;;
33148;SDS011;19506;51.040;3.856;2023-02-08T00:13:03;21.67;;;10.10;;
33148;SDS011;19506;51.040;3.856;2023-02-08T00:15:29;17.75;;;10.05;;
33148;SDS011;19506;51.040;3.856;2023-02-08T00:17:55;15.13;;;9.00;;
33148;SDS011;19506;51.040;3.856;2023-02-08T00:20:20;17.27;;;8.55;;
33148;SDS011;19506;51.040;3.856;2023-02-08T00:22:46;12.65;;;7.72;;
33148;SDS011;19506;51.040;3.856;2023-02-08T00:25:12;16.23;;;8.45;;
33148;SDS011;19506;51.040;3.856;2023-02-08T00:27:37;15.57;;;8.02;;
33148;SDS011;19506;51.040;3.856;2023-02-08T00:30:03;17.88;;;9.38;;
33148;SDS011;19506;51.040;3.856;2023-02-08T00:32:30;15.48;;;7.97;;
33148;SDS011;19506;51.040;3.856;2023-02-08T00:34:55;14.57;;;8.07;;
33148;SDS011;19506;51.040;3.856;2023-02-08T00:37:21;14.95;;;7.75;;
33148;SDS011;19506;51.040;3.856;2023-02-08T00:39:47;15.63;;;7.60;;
33148;SDS011;19506;51.040;3.856;2023-02-08T00:42:12;14.35;;;7.97;;
33148;SDS011;19506;51.040;3.856;2023-02-08T00:44:38;12.63;;;7.38;;
33148;SDS011;19506;51.040;3.856;2023-02-08T00:47:03;12.35;;;6.85;;
33148;SDS011;19506;51.040;3.856;2023-02-08T00:49:29;10.73;;;6.95;;
33148;SDS011;19506;51.040;3.856;2023-02-08T00:51:55;13.50;;;8.35;;
33148;SDS011;19506;51.040;3.856;2023-02-08T00:54:20;9.82;;;6.57;;
33148;SDS011;19506;51.040;3.856;2023-02-08T00:56:46;10.60;;;7.30;;
33148;SDS011;19506;51.040;3.856;2023-02-08T00:59:12;13.52;;;6.70;;
33148;SDS011;19506;51.040;3.856;2023-02-08T01:01:38;17.48;;;7.57;;
33148;SDS011;19506;51.040;3.856;2023-02-08T01:04:04;8.20;;;6.18;;
33148;SDS011;19506;51.040;3.856;2023-02-08T01:06:31;10.70;;;6.45;;
33148;SDS011;19506;51.040;3.856;2023-02-08T01:08:56;11.70;;;6.90;;
33148;SDS011;19506;51.040;3.856;2023-02-08T01:11:22;11.10;;;6.43;;
33148;SDS011;19506;51.040;3.856;2023-02-08T01:13:53;10.05;;;7.15;;
33148;SDS011;19506;51.040;3.856;2023-02-08T01:16:22;14.23;;;6.72;;
33148;SDS011;19506;51.040;3.856;2023-02-08T01:18:50;13.98;;;7.03;;
33148;SDS011;19506;51.040;3.856;2023-02-08T01:21:18;9.38;;;6.00;;
33148;SDS011;19506;51.040;3.856;2023-02-08T01:23:46;10.38;;;6.38;;
33148;SDS011;19506;51.040;3.856;2023-02-08T01:26:12;11.27;;;6.43;;
33148;SDS011;19506;51.040;3.856;2023-02-08T01:28:39;11.68;;;7.43;;
33148;SDS011;19506;51.040;3.856;2023-02-08T01:31:06;11.18;;;6.90;;
33148;SDS011;19506;51.040;3.856;2023-02-08T01:33:34;9.95;;;6.22;;
33148;SDS011;19506;51.040;3.856;2023-02-08T01:36:00;10.95;;;6.70;;
33148;SDS011;19506;51.040;3.856;2023-02-08T01:38:26;9.90;;;6.22;;
33148;SDS011;19506;51.040;3.856;2023-02-08T01:40:52;11.18;;;6.35;;
33148;SDS011;19506;51.040;3.856;2023-02-08T01:45:51;18.65;;;7.50;;
33148;SDS011;19506;51.040;3.856;2023-02-08T01:48:39;11.75;;;6.57;;
33148;SDS011;19506;51.040;3.856;2023-02-08T01:51:07;11.55;;;6.53;;
33148;SDS011;19506;51.040;3.856;2023-02-08T01:53:39;13.75;;;7.05;;
33148;SDS011;19506;51.040;3.856;2023-02-08T01:56:07;10.43;;;7.25;;
33148;SDS011;19506;51.040;3.856;2023-02-08T01:58:37;11.63;;;6.30;;
33148;SDS011;19506;51.040;3.856;2023-02-08T02:01:06;8.73;;;6.18;;
33148;SDS011;19506;51.040;3.856;2023-02-08T02:03:32;11.07;;;6.40;;
33148;SDS011;19506;51.040;3.856;2023-02-08T02:06:02;14.27;;;6.68;;
33148;SDS011;19506;51.040;3.856;2023-02-08T02:08:33;9.32;;;7.15;;
33148;SDS011;19506;51.040;3.856;2023-02-08T02:10:58;14.07;;;6.97;;
33148;SDS011;19506;51.040;3.856;2023-02-08T02:13:25;9.85;;;6.53;;
33148;SDS011;19506;51.040;3.856;2023-02-08T02:15:52;12.20;;;7.20;;
33148;SDS011;19506;51.040;3.856;2023-02-08T02:18:23;11.48;;;5.90;;
33148;SDS011;19506;51.040;3.856;2023-02-08T02:32:02;11.35;;;7.00;;
33148;SDS011;19506;51.040;3.856;2023-02-08T02:37:24;9.03;;;6.73;;
33148;SDS011;19506;51.040;3.856;2023-02-08T02:49:14;9.07;;;5.95;;
33148;SDS011;19506;51.040;3.856;2023-02-08T02:52:24;12.18;;;6.07;;
33148;SDS011;19506;51.040;3.856;2023-02-08T02:54:52;9.65;;;6.32;;
33148;SDS011;19506;51.040;3.856;2023-02-08T02:57:25;9.27;;;5.85;;
33148;SDS011;19506;51.040;3.856;2023-02-08T02:59:54;9.10;;;6.07;;
33148;SDS011;19506;51.040;3.856;2023-02-08T03:02:23;9.32;;;5.55;;
33148;SDS011;19506;51.040;3.856;2023-02-08T03:04:53;8.82;;;5.35;;
33148;SDS011;19506;51.040;3.856;2023-02-08T03:20:49;7.47;;;4.82;;
33148;SDS011;19506;51.040;3.856;2023-02-08T03:23:37;6.75;;;4.80;;
33148;SDS011;19506;51.040;3.856;2023-02-08T03:29:20;10.35;;;5.68;;
33148;SDS011;19506;51.040;3.856;2023-02-08T03:31:58;8.27;;;5.13;;
33148;SDS011;19506;51.040;3.856;2023-02-08T03:37:32;9.25;;;6.30;;
33148;SDS011;19506;51.040;3.856;2023-02-08T03:40:01;8.60;;;5.68;;
33148;SDS011;19506;51.040;3.856;2023-02-08T03:42:38;14.30;;;5.68;;
33148;SDS011;19506;51.040;3.856;2023-02-08T03:45:15;9.27;;;5.45;;
33148;SDS011;19506;51.040;3.856;2023-02-08T03:47:49;8.35;;;5.40;;
33148;SDS011;19506;51.040;3.856;2023-02-08T03:50:18;7.68;;;5.57;;
33148;SDS011;19506;51.040;3.856;2023-02-08T03:52:47;11.10;;;6.43;;
33148;SDS011;19506;51.040;3.856;2023-02-08T03:55:16;10.15;;;6.13;;
33148;SDS011;19506;51.040;3.856;2023-02-08T04:00:17;10.02;;;6.43;;
33148;SDS011;19506;51.040;3.856;2023-02-08T04:03:27;8.65;;;5.72;;
33148;SDS011;19506;51.040;3.856;2023-02-08T04:05:38;7.82;;;5.63;;
33148;SDS011;19506;51.040;3.856;2023-02-08T04:08:04;7.50;;;5.45;;
33148;SDS011;19506;51.040;3.856;2023-02-08T04:10:30;9.30;;;6.03;;
33148;SDS011;19506;51.040;3.856;2023-02-08T04:12:56;9.27;;;5.72;;
33148;SDS011;19506;51.040;3.856;2023-02-08T04:15:21;8.85;;;5.90;;
33148;SDS011;19506;51.040;3.856;2023-02-08T04:17:47;8.40;;;5.63;;
33148;SDS011;19506;51.040;3.856;2023-02-08T04:20:13;9.77;;;6.25;;
33148;SDS011;19506;51.040;3.856;2023-02-08T04:22:38;9.95;;;6.03;;
33148;SDS011;19506;51.040;3.856;2023-02-08T04:25:04;8.75;;;5.82;;
33148;SDS011;19506;51.040;3.856;2023-02-08T04:27:30;9.07;;;6.15;;
33148;SDS011;19506;51.040;3.856;2023-02-08T04:29:56;12.70;;;6.18;;
33148;SDS011;19506;51.040;3.856;2023-02-08T04:32:22;9.65;;;6.38;;
33148;SDS011;19506;51.040;3.856;2023-02-08T04:34:47;9.20;;;6.68;;
33148;SDS011;19506;51.040;3.856;2023-02-08T04:37:13;10.60;;;6.13;;
33148;SDS011;19506;51.040;3.856;2023-02-08T04:39:39;12.55;;;5.72;;
33148;SDS011;19506;51.040;3.856;2023-02-08T04:42:04;9.57;;;6.20;;
33148;SDS011;19506;51.040;3.856;2023-02-08T04:44:30;9.07;;;5.70;;
33148;SDS011;19506;51.040;3.856;2023-02-08T04:46:57;12.18;;;6.07;;
33148;SDS011;19506;51.040;3.856;2023-02-08T04:49:23;10.07;;;5.82;;
33148;SDS011;19506;51.040;3.856;2023-02-08T04:51:49;9.52;;;6.00;;
33148;SDS011;19506;51.040;3.856;2023-02-08T04:54:14;10.00;;;6.20;;
33148;SDS011;19506;51.040;3.856;2023-02-08T04:56:40;8.90;;;5.90;;
33148;SDS011;19506;51.040;3.856;2023-02-08T04:59:06;7.07;;;5.13;;
33148;SDS011;19506;51.040;3.856;2023-02-08T05:01:32;7.35;;;5.20;;
33148;SDS011;19506;51.040;3.856;2023-02-08T05:03:57;6.90;;;5.00;;
33148;SDS011;19506;51.040;3.856;2023-02-08T05:06:23;9.00;;;5.20;;
33148;SDS011;19506;51.040;3.856;2023-02-08T05:08:49;10.68;;;5.97;;
33148;SDS011;19506;51.040;3.856;2023-02-08T05:11:18;9.32;;;6.15;;
33148;SDS011;19506;51.040;3.856;2023-02-08T05:13:46;7.45;;;5.20;;
33148;SDS011;19506;51.040;3.856;2023-02-08T05:16:12;10.10;;;5.93;;
33148;SDS011;19506;51.040;3.856;2023-02-08T05:18:38;10.35;;;5.57;;
33148;SDS011;19506;51.040;3.856;2023-02-08T05:21:03;9.15;;;5.93;;
33148;SDS011;19506;51.040;3.856;2023-02-08T05:23:29;9.07;;;5.72;;
33148;SDS011;19506;51.040;3.856;2023-02-08T05:25:56;9.82;;;5.75;;
33148;SDS011;19506;51.040;3.856;2023-02-08T05:28:22;10.90;;;6.05;;
33148;SDS011;19506;51.040;3.856;2023-02-08T05:30:47;6.93;;;4.93;;
33148;SDS011;19506;51.040;3.856;2023-02-08T05:33:13;6.45;;;4.63;;
33148;SDS011;19506;51.040;3.856;2023-02-08T05:35:39;9.32;;;5.43;;
33148;SDS011;19506;51.040;3.856;2023-02-08T05:38:05;9.63;;;5.80;;
33148;SDS011;19506;51.040;3.856;2023-02-08T05:40:31;9.00;;;5.88;;
33148;SDS011;19506;51.040;3.856;2023-02-08T05:42:57;7.28;;;5.15;;
33148;SDS011;19506;51.040;3.856;2023-02-08T05:45:23;8.02;;;6.20;;
33148;SDS011;19506;51.040;3.856;2023-02-08T05:47:49;9.07;;;5.30;;
33148;SDS011;19506;51.040;3.856;2023-02-08T05:50:14;8.55;;;5.97;;
33148;SDS011;19506;51.040;3.856;2023-02-08T05:52:40;7.80;;;5.35;;
33148;SDS011;19506;51.040;3.856;2023-02-08T05:55:06;9.13;;;6.07;;
33148;SDS011;19506;51.040;3.856;2023-02-08T05:57:32;7.50;;;4.50;;
33148;SDS011;19506;51.040;3.856;2023-02-08T05:59:58;8.55;;;5.80;;
33148;SDS011;19506;51.040;3.856;2023-02-08T06:02:24;7.35;;;5.72;;
33148;SDS011;19506;51.040;3.856;2023-02-08T06:04:49;7.80;;;5.40;;
33148;SDS011;19506;51.040;3.856;2023-02-08T06:07:15;9.02;;;6.30;;
33148;SDS011;19506;51.040;3.856;2023-02-08T06:09:41;10.57;;;5.68;;
33148;SDS011;19506;51.040;3.856;2023-02-08T06:12:07;7.80;;;5.68;;
33148;SDS011;19506;51.040;3.856;2023-02-08T06:14:32;9.85;;;6.40;;
33148;SDS011;19506;51.040;3.856;2023-02-08T06:16:58;9.63;;;6.22;;
33148;SDS011;19506;51.040;3.856;2023-02-08T06:19:24;11.63;;;6.47;;
33148;SDS011;19506;51.040;3.856;2023-02-08T06:21:49;13.77;;;9.13;;
33148;SDS011;19506;51.040;3.856;2023-02-08T06:24:15;19.70;;;11.82;;
33148;SDS011;19506;51.040;3.856;2023-02-08T06:26:41;26.27;;;14.07;;
33148;SDS011;19506;51.040;3.856;2023-02-08T06:29:08;31.48;;;18.70;;
33148;SDS011;19506;51.040;3.856;2023-02-08T06:31:34;32.42;;;21.15;;
33148;SDS011;19506;51.040;3.856;2023-02-08T06:34:00;42.63;;;26.50;;
33148;SDS011;19506;51.040;3.856;2023-02-08T06:36:25;39.72;;;27.88;;
33148;SDS011;19506;51.040;3.856;2023-02-08T06:38:51;46.03;;;31.38;;
33148;SDS011;19506;51.040;3.856;2023-02-08T06:41:17;51.58;;;32.88;;
33148;SDS011;19506;51.040;3.856;2023-02-08T06:43:43;59.97;;;35.63;;
33148;SDS011;19506;51.040;3.856;2023-02-08T06:46:08;61.58;;;38.40;;
33148;SDS011;19506;51.040;3.856;2023-02-08T06:48:34;60.28;;;35.70;;
33148;SDS011;19506;51.040;3.856;2023-02-08T06:51:00;66.28;;;35.92;;
33148;SDS011;19506;51.040;3.856;2023-02-08T06:53:26;50.42;;;27.83;;
33148;SDS011;19506;51.040;3.856;2023-02-08T06:55:51;48.47;;;27.38;;
33148;SDS011;19506;51.040;3.856;2023-02-08T06:58:17;47.55;;;25.13;;
33148;SDS011;19506;51.040;3.856;2023-02-08T07:00:43;46.20;;;20.95;;
33148;SDS011;19506;51.040;3.856;2023-02-08T07:03:09;47.42;;;20.88;;
33148;SDS011;19506;51.040;3.856;2023-02-08T07:05:36;52.67;;;18.73;;
33148;SDS011;19506;51.040;3.856;2023-02-08T07:08:03;47.53;;;17.92;;
33148;SDS011;19506;51.040;3.856;2023-02-08T07:10:29;53.83;;;18.50;;
33148;SDS011;19506;51.040;3.856;2023-02-08T07:12:55;41.95;;;17.30;;
33148;SDS011;19506;51.040;3.856;2023-02-08T07:15:21;40.15;;;16.83;;
33148;SDS011;19506;51.040;3.856;2023-02-08T07:17:47;45.67;;;17.58;;
33148;SDS011;19506;51.040;3.856;2023-02-08T07:20:12;55.40;;;16.95;;
33148;SDS011;19506;51.040;3.856;2023-02-08T07:22:39;39.80;;;17.02;;
33148;SDS011;19506;51.040;3.856;2023-02-08T07:25:05;39.08;;;15.88;;
33148;SDS011;19506;51.040;3.856;2023-02-08T07:27:32;42.42;;;16.05;;
33148;SDS011;19506;51.040;3.856;2023-02-08T07:29:58;54.17;;;19.50;;
33148;SDS011;19506;51.040;3.856;2023-02-08T07:32:23;38.85;;;15.82;;
33148;SDS011;19506;51.040;3.856;2023-02-08T07:34:49;44.58;;;15.82;;
33148;SDS011;19506;51.040;3.856;2023-02-08T07:37:15;43.17;;;15.32;;
33148;SDS011;19506;51.040;3.856;2023-02-08T07:39:40;42.42;;;14.93;;
33148;SDS011;19506;51.040;3.856;2023-02-08T07:42:07;41.45;;;15.50;;
33148;SDS011;19506;51.040;3.856;2023-02-08T07:44:35;41.10;;;15.20;;
33148;SDS011;19506;51.040;3.856;2023-02-08T07:47:04;43.80;;;15.50;;
33148;SDS011;19506;51.040;3.856;2023-02-08T07:49:31;43.38;;;14.48;;
33148;SDS011;19506;51.040;3.856;2023-02-08T07:51:57;38.30;;;13.45;;
33148;SDS011;19506;51.040;3.856;2023-02-08T07:54:24;48.72;;;15.23;;
33148;SDS011;19506;51.040;3.856;2023-02-08T07:56:49;43.95;;;17.08;;
33148;SDS011;19506;51.040;3.856;2023-02-08T07:59:15;41.88;;;13.88;;
33148;SDS011;19506;51.040;3.856;2023-02-08T08:01:41;39.95;;;14.02;;
33148;SDS011;19506;51.040;3.856;2023-02-08T08:04:07;43.22;;;14.00;;
33148;SDS011;19506;51.040;3.856;2023-02-08T08:06:32;50.95;;;16.30;;
33148;SDS011;19506;51.040;3.856;2023-02-08T08:08:58;29.60;;;13.43;;
33148;SDS011;19506;51.040;3.856;2023-02-08T08:11:24;35.03;;;14.77;;
33148;SDS011;19506;51.040;3.856;2023-02-08T08:13:50;37.05;;;15.65;;
33148;SDS011;19506;51.040;3.856;2023-02-08T08:16:16;44.10;;;14.48;;
33148;SDS011;19506;51.040;3.856;2023-02-08T08:18:42;36.42;;;13.38;;
33148;SDS011;19506;51.040;3.856;2023-02-08T08:21:07;39.17;;;13.75;;
33148;SDS011;19506;51.040;3.856;2023-02-08T08:23:34;31.48;;;13.77;;
33148;SDS011;19506;51.040;3.856;2023-02-08T08:26:05;60.00;;;15.35;;
33148;SDS011;19506;51.040;3.856;2023-02-08T08:28:32;39.30;;;14.35;;
33148;SDS011;19506;51.040;3.856;2023-02-08T08:30:57;34.20;;;12.45;;
33148;SDS011;19506;51.040;3.856;2023-02-08T08:33:23;39.63;;;12.20;;
33148;SDS011;19506;51.040;3.856;2023-02-08T08:35:50;34.45;;;13.55;;
33148;SDS011;19506;51.040;3.856;2023-02-08T08:38:16;33.08;;;13.10;;
33148;SDS011;19506;51.040;3.856;2023-02-08T08:40:42;29.67;;;13.63;;
33148;SDS011;19506;51.040;3.856;2023-02-08T08:43:08;31.80;;;13.15;;
33148;SDS011;19506;51.040;3.856;2023-02-08T08:45:34;25.38;;;13.88;;
33148;SDS011;19506;51.040;3.856;2023-02-08T08:48:00;33.88;;;12.60;;
33148;SDS011;19506;51.040;3.856;2023-02-08T08:50:27;36.33;;;12.38;;
33148;SDS011;19506;51.040;3.856;2023-02-08T08:52:53;41.67;;;14.63;;
33148;SDS011;19506;51.040;3.856;2023-02-08T08:55:19;28.90;;;11.80;;
33148;SDS011;19506;51.040;3.856;2023-02-08T08:57:44;24.83;;;11.15;;
33148;SDS011;19506;51.040;3.856;2023-02-08T09:00:10;31.23;;;12.05;;
33148;SDS011;19506;51.040;3.856;2023-02-08T09:02:36;28.63;;;11.75;;
33148;SDS011;19506;51.040;3.856;2023-02-08T09:05:02;29.20;;;12.10;;
33148;SDS011;19506;51.040;3.856;2023-02-08T09:07:29;30.85;;;11.65;;
33148;SDS011;19506;51.040;3.856;2023-02-08T09:09:55;22.38;;;12.15;;
33148;SDS011;19506;51.040;3.856;2023-02-08T09:12:21;28.40;;;11.60;;
33148;SDS011;19506;51.040;3.856;2023-02-08T09:14:46;26.17;;;12.35;;
33148;SDS011;19506;51.040;3.856;2023-02-08T09:17:12;25.13;;;12.25;;
33148;SDS011;19506;51.040;3.856;2023-02-08T09:19:38;28.27;;;13.25;;
33148;SDS011;19506;51.040;3.856;2023-02-08T09:22:07;25.92;;;11.85;;
33148;SDS011;19506;51.040;3.856;2023-02-08T09:24:33;23.58;;;11.15;;
33148;SDS011;19506;51.040;3.856;2023-02-08T09:26:59;24.80;;;12.55;;
33148;SDS011;19506;51.040;3.856;2023-02-08T09:29:24;24.10;;;11.35;;
33148;SDS011;19506;51.040;3.856;2023-02-08T09:31:53;25.23;;;10.70;;
33148;SDS011;19506;51.040;3.856;2023-02-08T09:34:19;24.92;;;11.77;;
33148;SDS011;19506;51.040;3.856;2023-02-08T09:39:12;24.45;;;10.85;;
33148;SDS011;19506;51.040;3.856;2023-02-08T09:44:37;20.52;;;10.35;;
33148;SDS011;19506;51.040;3.856;2023-02-08T09:47:12;24.50;;;10.02;;
33148;SDS011;19506;51.040;3.856;2023-02-08T09:49:44;19.75;;;9.93;;
33148;SDS011;19506;51.040;3.856;2023-02-08T09:52:12;20.38;;;9.90;;
33148;SDS011;19506;51.040;3.856;2023-02-08T09:55:00;20.40;;;9.85;;
33148;SDS011;19506;51.040;3.856;2023-02-08T09:57:30;28.65;;;10.50;;
33148;SDS011;19506;51.040;3.856;2023-02-08T10:00:03;22.15;;;10.93;;
33148;SDS011;19506;51.040;3.856;2023-02-08T10:02:31;19.25;;;9.25;;
33148;SDS011;19506;51.040;3.856;2023-02-08T10:05:05;20.33;;;10.35;;
33148;SDS011;19506;51.040;3.856;2023-02-08T10:07:32;19.05;;;10.07;;
33148;SDS011;19506;51.040;3.856;2023-02-08T10:10:00;20.25;;;9.00;;
33148;SDS011;19506;51.040;3.856;2023-02-08T10:20:34;27.95;;;10.68;;
33148;SDS011;19506;51.040;3.856;2023-02-08T10:23:28;23.02;;;9.85;;
33148;SDS011;19506;51.040;3.856;2023-02-08T10:34:10;24.90;;;10.45;;
33148;SDS011;19506;51.040;3.856;2023-02-08T10:36:59;22.83;;;8.95;;
33148;SDS011;19506;51.040;3.856;2023-02-08T10:39:31;25.65;;;9.50;;
33148;SDS011;19506;51.040;3.856;2023-02-08T10:41:59;28.17;;;9.77;;
33148;SDS011;19506;51.040;3.856;2023-02-08T10:50:03;22.65;;;10.20;;
33148;SDS011;19506;51.040;3.856;2023-02-08T10:52:31;25.00;;;9.27;;
33148;SDS011;19506;51.040;3.856;2023-02-08T10:54:57;30.95;;;9.73;;
33148;SDS011;19506;51.040;3.856;2023-02-08T10:57:24;20.95;;;8.45;;
33148;SDS011;19506;51.040;3.856;2023-02-08T11:00:01;24.10;;;9.57;;
33148;SDS011;19506;51.040;3.856;2023-02-08T11:02:38;23.02;;;9.20;;
33148;SDS011;19506;51.040;3.856;2023-02-08T11:07:39;19.42;;;8.68;;
33148;SDS011;19506;51.040;3.856;2023-02-08T11:12:37;23.52;;;8.90;;
33148;SDS011;19506;51.040;3.856;2023-02-08T11:15:05;20.40;;;8.93;;
33148;SDS011;19506;51.040;3.856;2023-02-08T11:17:46;25.23;;;9.07;;
33148;SDS011;19506;51.040;3.856;2023-02-08T11:20:20;16.33;;;8.30;;
33148;SDS011;19506;51.040;3.856;2023-02-08T11:22:50;20.63;;;9.05;;
33148;SDS011;19506;51.040;3.856;2023-02-08T11:25:33;22.02;;;8.63;;
33148;SDS011;19506;51.040;3.856;2023-02-08T11:27:59;17.20;;;8.20;;
33148;SDS011;19506;51.040;3.856;2023-02-08T11:30:25;15.93;;;7.38;;
33148;SDS011;19506;51.040;3.856;2023-02-08T11:35:57;18.63;;;7.57;;
33148;SDS011;19506;51.040;3.856;2023-02-08T11:38:25;18.10;;;7.53;;
33148;SDS011;19506;51.040;3.856;2023-02-08T11:40:52;15.38;;;7.93;;
33148;SDS011;19506;51.040;3.856;2023-02-08T11:43:25;23.58;;;8.27;;
33148;SDS011;19506;51.040;3.856;2023-02-08T11:45:56;19.13;;;7.45;;
33148;SDS011;19506;51.040;3.856;2023-02-08T11:48:24;18.90;;;8.07;;
33148;SDS011;19506;51.040;3.856;2023-02-08T11:51:06;18.67;;;7.60;;
33148;SDS011;19506;51.040;3.856;2023-02-08T11:53:35;21.77;;;8.73;;
33148;SDS011;19506;51.040;3.856;2023-02-08T11:56:14;20.73;;;7.35;;
33148;SDS011;19506;51.040;3.856;2023-02-08T11:58:40;19.20;;;7.88;;
33148;SDS011;19506;51.040;3.856;2023-02-08T12:01:18;28.20;;;8.60;;
33148;SDS011;19506;51.040;3.856;2023-02-08T12:03:45;13.45;;;7.40;;
33148;SDS011;19506;51.040;3.856;2023-02-08T12:15:15;16.50;;;6.53;;
33148;SDS011;19506;51.040;3.856;2023-02-08T12:20:41;24.40;;;7.23;;
33148;SDS011;19506;51.040;3.856;2023-02-08T12:26:04;15.25;;;7.15;;
33148;SDS011;19506;51.040;3.856;2023-02-08T12:34:09;21.55;;;6.57;;
33148;SDS011;19506;51.040;3.856;2023-02-08T12:43:10;16.03;;;6.67;;
33148;SDS011;19506;51.040;3.856;2023-02-08T12:46:06;14.13;;;6.32;;
33148;SDS011;19506;51.040;3.856;2023-02-08T12:53:59;19.83;;;6.82;;
33148;SDS011;19506;51.040;3.856;2023-02-08T12:56:32;16.40;;;7.47;;
33148;SDS011;19506;51.040;3.856;2023-02-08T12:59:00;15.70;;;7.60;;
33148;SDS011;19506;51.040;3.856;2023-02-08T13:04:33;23.90;;;5.35;;
33148;SDS011;19506;51.040;3.856;2023-02-08T13:07:09;20.08;;;5.90;;
33148;SDS011;19506;51.040;3.856;2023-02-08T13:09:45;15.18;;;5.78;;
33148;SDS011;19506;51.040;3.856;2023-02-08T13:12:20;12.05;;;5.40;;
33148;SDS011;19506;51.040;3.856;2023-02-08T13:17:57;10.32;;;4.95;;
33148;SDS011;19506;51.040;3.856;2023-02-08T13:20:43;13.05;;;5.55;;
33148;SDS011;19506;51.040;3.856;2023-02-08T13:23:19;15.48;;;5.50;;
33148;SDS011;19506;51.040;3.856;2023-02-08T13:26:00;12.77;;;5.13;;
33148;SDS011;19506;51.040;3.856;2023-02-08T13:28:53;13.30;;;5.25;;
33148;SDS011;19506;51.040;3.856;2023-02-08T13:31:21;13.82;;;5.68;;
33148;SDS011;19506;51.040;3.856;2023-02-08T13:33:50;13.85;;;5.63;;
33148;SDS011;19506;51.040;3.856;2023-02-08T13:36:22;18.33;;;5.95;;
33148;SDS011;19506;51.040;3.856;2023-02-08T13:38:51;16.42;;;5.57;;
33148;SDS011;19506;51.040;3.856;2023-02-08T13:41:19;14.38;;;5.07;;
33148;SDS011;19506;51.040;3.856;2023-02-08T13:46:15;14.35;;;5.03;;
33148;SDS011;19506;51.040;3.856;2023-02-08T13:48:47;15.02;;;5.63;;
33148;SDS011;19506;51.040;3.856;2023-02-08T14:04:37;13.68;;;4.80;;
33148;SDS011;19506;51.040;3.856;2023-02-08T14:12:15;10.05;;;4.25;;
33148;SDS011;19506;51.040;3.856;2023-02-08T14:17:43;14.15;;;5.00;;
33148;SDS011;19506;51.040;3.856;2023-02-08T14:20:18;23.15;;;5.20;;
33148;SDS011;19506;51.040;3.856;2023-02-08T14:25:22;18.75;;;5.18;;
33148;SDS011;19506;51.040;3.856;2023-02-08T14:27:54;19.40;;;4.72;;
33148;SDS011;19506;51.040;3.856;2023-02-08T14:30:24;15.88;;;4.70;;
33148;SDS011;19506;51.040;3.856;2023-02-08T14:35:27;22.75;;;5.53;;
33148;SDS011;19506;51.040;3.856;2023-02-08T14:40:47;10.68;;;3.75;;
33148;SDS011;19506;51.040;3.856;2023-02-08T14:45:56;20.42;;;4.97;;
33148;SDS011;19506;51.040;3.856;2023-02-08T14:48:27;17.45;;;4.88;;
33148;SDS011;19506;51.040;3.856;2023-02-08T14:53:43;12.85;;;4.68;;
33148;SDS011;19506;51.040;3.856;2023-02-08T14:56:22;16.27;;;4.28;;
33148;SDS011;19506;51.040;3.856;2023-02-08T15:01:41;16.10;;;4.13;;
33148;SDS011;19506;51.040;3.856;2023-02-08T15:04:13;11.02;;;4.15;;
33148;SDS011;19506;51.040;3.856;2023-02-08T15:09:18;12.75;;;3.78;;
33148;SDS011;19506;51.040;3.856;2023-02-08T15:14:27;11.43;;;3.92;;
33148;SDS011;19506;51.040;3.856;2023-02-08T15:16:54;10.77;;;4.28;;
33148;SDS011;19506;51.040;3.856;2023-02-08T15:19:28;10.73;;;4.18;;
33148;SDS011;19506;51.040;3.856;2023-02-08T15:22:15;12.98;;;3.72;;
33148;SDS011;19506;51.040;3.856;2023-02-08T15:27:26;9.13;;;3.58;;
33148;SDS011;19506;51.040;3.856;2023-02-08T15:29:55;7.28;;;2.78;;
33148;SDS011;19506;51.040;3.856;2023-02-08T15:32:22;19.42;;;4.20;;
33148;SDS011;19506;51.040;3.856;2023-02-08T15:34:54;12.70;;;3.97;;
33148;SDS011;19506;51.040;3.856;2023-02-08T15:37:25;13.63;;;3.78;;
33148;SDS011;19506;51.040;3.856;2023-02-08T15:39:57;8.90;;;4.15;;
33148;SDS011;19506;51.040;3.856;2023-02-08T15:42:25;8.95;;;3.97;;
33148;SDS011;19506;51.040;3.856;2023-02-08T15:44:53;9.65;;;3.90;;
33148;SDS011;19506;51.040;3.856;2023-02-08T15:49:54;9.25;;;3.58;;
33148;SDS011;19506;51.040;3.856;2023-02-08T15:52:24;8.48;;;3.92;;
33148;SDS011;19506;51.040;3.856;2023-02-08T15:54:54;11.13;;;4.95;;
33148;SDS011;19506;51.040;3.856;2023-02-08T15:57:21;8.90;;;3.92;;
33148;SDS011;19506;51.040;3.856;2023-02-08T16:00:21;9.27;;;3.05;;
33148;SDS011;19506;51.040;3.856;2023-02-08T16:02:50;16.77;;;4.22;;
33148;SDS011;19506;51.040;3.856;2023-02-08T16:05:20;26.15;;;5.38;;
33148;SDS011;19506;51.040;3.856;2023-02-08T16:07:49;9.07;;;3.75;;
33148;SDS011;19506;51.040;3.856;2023-02-08T16:12:51;9.10;;;3.47;;
33148;SDS011;19506;51.040;3.856;2023-02-08T16:15:51;5.85;;;3.10;;
33148;SDS011;19506;51.040;3.856;2023-02-08T16:20:55;10.73;;;3.65;;
33148;SDS011;19506;51.040;3.856;2023-02-08T16:23:22;10.93;;;4.00;;
33148;SDS011;19506;51.040;3.856;2023-02-08T16:25:49;11.38;;;3.45;;
33148;SDS011;19506;51.040;3.856;2023-02-08T16:28:23;7.25;;;2.85;;
33148;SDS011;19506;51.040;3.856;2023-02-08T16:30:50;6.43;;;3.30;;
33148;SDS011;19506;51.040;3.856;2023-02-08T16:33:16;12.65;;;4.20;;
33148;SDS011;19506;51.040;3.856;2023-02-08T16:35:43;10.80;;;4.97;;
33148;SDS011;19506;51.040;3.856;2023-02-08T16:38:09;9.10;;;3.13;;
33148;SDS011;19506;51.040;3.856;2023-02-08T16:40:43;8.60;;;3.28;;
33148;SDS011;19506;51.040;3.856;2023-02-08T16:43:26;9.02;;;3.38;;
33148;SDS011;19506;51.040;3.856;2023-02-08T16:48:34;10.13;;;3.92;;
33148;SDS011;19506;51.040;3.856;2023-02-08T16:51:01;8.82;;;3.47;;
33148;SDS011;19506;51.040;3.856;2023-02-08T16:53:28;6.60;;;3.47;;
33148;SDS011;19506;51.040;3.856;2023-02-08T16:55:55;10.73;;;3.80;;
33148;SDS011;19506;51.040;3.856;2023-02-08T16:58:22;6.28;;;2.83;;
33148;SDS011;19506;51.040;3.856;2023-02-08T17:00:49;7.13;;;3.25;;
33148;SDS011;19506;51.040;3.856;2023-02-08T17:03:15;9.27;;;3.70;;
33148;SDS011;19506;51.040;3.856;2023-02-08T17:05:41;7.75;;;3.22;;
33148;SDS011;19506;51.040;3.856;2023-02-08T17:08:10;12.98;;;3.80;;
33148;SDS011;19506;51.040;3.856;2023-02-08T17:10:37;9.63;;;3.75;;
33148;SDS011;19506;51.040;3.856;2023-02-08T17:13:03;11.68;;;3.40;;
33148;SDS011;19506;51.040;3.856;2023-02-08T17:15:29;10.02;;;4.10;;
33148;SDS011;19506;51.040;3.856;2023-02-08T17:17:55;7.22;;;3.42;;
33148;SDS011;19506;51.040;3.856;2023-02-08T17:20:23;11.90;;;3.50;;
33148;SDS011;19506;51.040;3.856;2023-02-08T17:22:50;7.90;;;3.78;;
33148;SDS011;19506;51.040;3.856;2023-02-08T17:25:16;5.72;;;3.17;;
33148;SDS011;19506;51.040;3.856;2023-02-08T17:30:31;7.22;;;3.60;;
33148;SDS011;19506;51.040;3.856;2023-02-08T17:32:58;11.52;;;3.85;;
33148;SDS011;19506;51.040;3.856;2023-02-08T17:35:24;6.60;;;2.90;;
33148;SDS011;19506;51.040;3.856;2023-02-08T17:37:52;10.05;;;3.40;;
33148;SDS011;19506;51.040;3.856;2023-02-08T17:40:19;7.30;;;3.80;;
33148;SDS011;19506;51.040;3.856;2023-02-08T17:42:45;9.40;;;3.50;;
33148;SDS011;19506;51.040;3.856;2023-02-08T17:45:11;8.48;;;3.10;;
33148;SDS011;19506;51.040;3.856;2023-02-08T17:47:37;7.15;;;3.63;;